Terminal Aerodrome Forecast
Issued by NWS Omaha/Valley, NE

Home | Current Version | Previous Version | Graphics & Text | Print | Product List | Glossary On
Versions: 1 2 3 4 5 6 7 8 9 10 11 12 13 14 15 16 17 18 19 20 21 22 23 24 25 26 27 28 29 30 31 32 33 34 35 36 37 38 39 40 41 42 43 44
000
FTUS43 KOAX 061406 AAA
TAFOFK
TAF AMD
KOFK 061406Z 0614/0712 33010KT 6SM -SHRA BR OVC050
     FM061500 34014G23KT P6SM OVC025
      TEMPO 0615/0618 -SHRA OVC008
     FM062000 36015G25KT P6SM OVC040
     FM070100 36010KT P6SM SCT250=

USA.gov is the U.S. government's official web portal to all federal, state and local government web resources and services.